sensor_id;sensor_type;location;lat;lon;timestamp;temperature;humidity
20487;DHT22;10402;49.012;8.370;2023-07-16T00:00:20;22.20;92.60
20487;DHT22;10402;49.012;8.370;2023-07-16T00:02:46;22.00;92.60
20487;DHT22;10402;49.012;8.370;2023-07-16T00:05:12;22.00;92.70
20487;DHT22;10402;49.012;8.370;2023-07-16T00:07:37;22.00;92.70
20487;DHT22;10402;49.012;8.370;2023-07-16T00:10:03;22.00;93.00
20487;DHT22;10402;49.012;8.370;2023-07-16T00:12:29;22.00;93.00
20487;DHT22;10402;49.012;8.370;2023-07-16T00:14:54;21.90;92.90
20487;DHT22;10402;49.012;8.370;2023-07-16T00:17:20;21.90;93.00
20487;DHT22;10402;49.012;8.370;2023-07-16T00:19:46;21.90;93.10
20487;DHT22;10402;49.012;8.370;2023-07-16T00:22:11;21.90;93.20
20487;DHT22;10402;49.012;8.370;2023-07-16T00:24:37;21.90;93.00
20487;DHT22;10402;49.012;8.370;2023-07-16T00:27:03;21.90;93.00
20487;DHT22;10402;49.012;8.370;2023-07-16T00:29:29;22.00;93.10
20487;DHT22;10402;49.012;8.370;2023-07-16T00:31:54;21.90;93.10
20487;DHT22;10402;49.012;8.370;2023-07-16T00:34:20;22.00;93.50
20487;DHT22;10402;49.012;8.370;2023-07-16T00:36:45;22.00;92.90
20487;DHT22;10402;49.012;8.370;2023-07-16T00:39:11;21.90;93.00
20487;DHT22;10402;49.012;8.370;2023-07-16T00:41:36;22.00;92.90
20487;DHT22;10402;49.012;8.370;2023-07-16T00:44:02;21.90;92.80
20487;DHT22;10402;49.012;8.370;2023-07-16T00:46:27;22.00;92.70
20487;DHT22;10402;49.012;8.370;2023-07-16T00:48:53;21.90;92.40
20487;DHT22;10402;49.012;8.370;2023-07-16T00:51:19;21.80;92.00
20487;DHT22;10402;49.012;8.370;2023-07-16T00:53:47;21.70;91.90
20487;DHT22;10402;49.012;8.370;2023-07-16T00:56:16;21.60;91.70
20487;DHT22;10402;49.012;8.370;2023-07-16T00:58:42;21.60;91.80
20487;DHT22;10402;49.012;8.370;2023-07-16T01:01:07;21.60;91.80
20487;DHT22;10402;49.012;8.370;2023-07-16T01:03:33;21.60;91.90
20487;DHT22;10402;49.012;8.370;2023-07-16T01:06:04;21.50;91.90
20487;DHT22;10402;49.012;8.370;2023-07-16T01:08:57;21.50;92.00
20487;DHT22;10402;49.012;8.370;2023-07-16T01:11:23;21.50;92.10
20487;DHT22;10402;49.012;8.370;2023-07-16T01:13:50;21.40;92.10
20487;DHT22;10402;49.012;8.370;2023-07-16T01:16:23;21.30;92.10
20487;DHT22;10402;49.012;8.370;2023-07-16T01:18:50;21.20;92.20
20487;DHT22;10402;49.012;8.370;2023-07-16T01:21:18;21.20;92.10
20487;DHT22;10402;49.012;8.370;2023-07-16T01:29:33;21.30;91.90
20487;DHT22;10402;49.012;8.370;2023-07-16T01:32:02;21.20;91.60
20487;DHT22;10402;49.012;8.370;2023-07-16T01:34:30;21.20;91.70
20487;DHT22;10402;49.012;8.370;2023-07-16T01:36:56;21.10;91.40
20487;DHT22;10402;49.012;8.370;2023-07-16T01:39:21;21.10;91.30
20487;DHT22;10402;49.012;8.370;2023-07-16T01:41:47;21.00;91.20
20487;DHT22;10402;49.012;8.370;2023-07-16T01:44:13;21.00;91.10
20487;DHT22;10402;49.012;8.370;2023-07-16T01:46:38;21.00;91.20
20487;DHT22;10402;49.012;8.370;2023-07-16T01:49:04;21.00;91.10
20487;DHT22;10402;49.012;8.370;2023-07-16T01:51:29;21.00;91.00
20487;DHT22;10402;49.012;8.370;2023-07-16T01:53:55;20.90;90.90
20487;DHT22;10402;49.012;8.370;2023-07-16T01:56:20;20.90;90.90
20487;DHT22;10402;49.012;8.370;2023-07-16T01:58:46;20.90;90.90
20487;DHT22;10402;49.012;8.370;2023-07-16T02:01:11;20.90;90.90
20487;DHT22;10402;49.012;8.370;2023-07-16T02:03:37;20.90;90.90
20487;DHT22;10402;49.012;8.370;2023-07-16T02:06:02;20.90;90.90
20487;DHT22;10402;49.012;8.370;2023-07-16T02:08:28;20.80;90.70
20487;DHT22;10402;49.012;8.370;2023-07-16T02:10:53;20.80;90.80
20487;DHT22;10402;49.012;8.370;2023-07-16T02:13:19;20.80;90.80
20487;DHT22;10402;49.012;8.370;2023-07-16T02:15:45;20.80;90.80
20487;DHT22;10402;49.012;8.370;2023-07-16T02:18:10;20.70;90.90
20487;DHT22;10402;49.012;8.370;2023-07-16T02:20:36;20.70;91.00
20487;DHT22;10402;49.012;8.370;2023-07-16T02:23:01;20.70;91.00
20487;DHT22;10402;49.012;8.370;2023-07-16T02:25:27;20.70;91.10
20487;DHT22;10402;49.012;8.370;2023-07-16T02:27:52;20.70;91.30
20487;DHT22;10402;49.012;8.370;2023-07-16T02:30:18;20.60;91.30
20487;DHT22;10402;49.012;8.370;2023-07-16T02:32:44;20.60;91.40
20487;DHT22;10402;49.012;8.370;2023-07-16T02:35:10;20.60;91.40
20487;DHT22;10402;49.012;8.370;2023-07-16T02:37:35;20.50;91.40
20487;DHT22;10402;49.012;8.370;2023-07-16T02:40:01;20.50;91.50
20487;DHT22;10402;49.012;8.370;2023-07-16T02:42:27;20.50;91.50
20487;DHT22;10402;49.012;8.370;2023-07-16T02:44:52;20.50;91.50
20487;DHT22;10402;49.012;8.370;2023-07-16T02:47:18;20.50;91.50
20487;DHT22;10402;49.012;8.370;2023-07-16T02:49:43;20.50;91.70
20487;DHT22;10402;49.012;8.370;2023-07-16T02:52:09;20.50;91.70
20487;DHT22;10402;49.012;8.370;2023-07-16T02:54:37;20.50;91.70
20487;DHT22;10402;49.012;8.370;2023-07-16T02:57:04;20.50;91.70
20487;DHT22;10402;49.012;8.370;2023-07-16T02:59:30;20.50;91.80
20487;DHT22;10402;49.012;8.370;2023-07-16T03:01:55;20.50;91.80
20487;DHT22;10402;49.012;8.370;2023-07-16T03:04:21;20.50;91.90
20487;DHT22;10402;49.012;8.370;2023-07-16T03:06:46;20.50;91.90
20487;DHT22;10402;49.012;8.370;2023-07-16T03:09:12;20.50;91.90
20487;DHT22;10402;49.012;8.370;2023-07-16T03:11:38;20.40;91.70
20487;DHT22;10402;49.012;8.370;2023-07-16T03:14:03;20.50;91.80
20487;DHT22;10402;49.012;8.370;2023-07-16T03:16:29;20.50;91.70
20487;DHT22;10402;49.012;8.370;2023-07-16T03:18:55;20.50;91.70
20487;DHT22;10402;49.012;8.370;2023-07-16T03:21:20;20.40;91.60
20487;DHT22;10402;49.012;8.370;2023-07-16T03:23:46;20.40;91.60
20487;DHT22;10402;49.012;8.370;2023-07-16T03:26:11;20.40;91.50
20487;DHT22;10402;49.012;8.370;2023-07-16T03:28:37;20.40;91.40
20487;DHT22;10402;49.012;8.370;2023-07-16T03:31:02;20.40;91.30
20487;DHT22;10402;49.012;8.370;2023-07-16T03:33:28;20.40;91.40
20487;DHT22;10402;49.012;8.370;2023-07-16T03:35:53;20.40;91.30
20487;DHT22;10402;49.012;8.370;2023-07-16T03:38:19;20.40;91.20
20487;DHT22;10402;49.012;8.370;2023-07-16T03:40:49;20.40;91.10
20487;DHT22;10402;49.012;8.370;2023-07-16T03:43:16;20.40;91.00
20487;DHT22;10402;49.012;8.370;2023-07-16T03:45:41;20.40;91.00
20487;DHT22;10402;49.012;8.370;2023-07-16T03:48:07;20.40;91.10
20487;DHT22;10402;49.012;8.370;2023-07-16T03:50:33;20.40;91.00
20487;DHT22;10402;49.012;8.370;2023-07-16T03:52:59;20.40;91.00
20487;DHT22;10402;49.012;8.370;2023-07-16T03:55:24;20.30;90.90
20487;DHT22;10402;49.012;8.370;2023-07-16T03:57:50;20.30;91.10
20487;DHT22;10402;49.012;8.370;2023-07-16T04:00:16;20.30;91.10
20487;DHT22;10402;49.012;8.370;2023-07-16T04:02:41;20.20;91.20
20487;DHT22;10402;49.012;8.370;2023-07-16T04:05:07;20.20;91.30
20487;DHT22;10402;49.012;8.370;2023-07-16T04:07:33;20.20;91.30
20487;DHT22;10402;49.012;8.370;2023-07-16T04:09:58;20.20;91.40
20487;DHT22;10402;49.012;8.370;2023-07-16T04:12:24;20.20;91.40
20487;DHT22;10402;49.012;8.370;2023-07-16T04:14:50;20.30;91.40
20487;DHT22;10402;49.012;8.370;2023-07-16T04:17:16;20.20;91.30
20487;DHT22;10402;49.012;8.370;2023-07-16T04:19:41;20.20;91.40
20487;DHT22;10402;49.012;8.370;2023-07-16T04:22:07;20.20;91.30
20487;DHT22;10402;49.012;8.370;2023-07-16T04:24:33;20.20;91.30
20487;DHT22;10402;49.012;8.370;2023-07-16T04:26:59;20.20;91.30
20487;DHT22;10402;49.012;8.370;2023-07-16T04:29:25;20.20;91.30
20487;DHT22;10402;49.012;8.370;2023-07-16T04:31:50;20.20;91.40
20487;DHT22;10402;49.012;8.370;2023-07-16T04:34:16;20.10;91.40
20487;DHT22;10402;49.012;8.370;2023-07-16T04:36:42;20.20;91.50
20487;DHT22;10402;49.012;8.370;2023-07-16T04:39:08;20.20;91.50
20487;DHT22;10402;49.012;8.370;2023-07-16T04:41:34;20.10;91.40
20487;DHT22;10402;49.012;8.370;2023-07-16T04:43:59;20.10;91.40
20487;DHT22;10402;49.012;8.370;2023-07-16T04:46:25;20.00;91.50
20487;DHT22;10402;49.012;8.370;2023-07-16T04:48:50;20.10;91.60
20487;DHT22;10402;49.012;8.370;2023-07-16T04:51:16;20.10;91.60
20487;DHT22;10402;49.012;8.370;2023-07-16T04:53:41;20.10;91.40
20487;DHT22;10402;49.012;8.370;2023-07-16T04:56:14;20.10;91.40
20487;DHT22;10402;49.012;8.370;2023-07-16T04:58:40;20.10;91.40
20487;DHT22;10402;49.012;8.370;2023-07-16T05:01:06;20.10;91.40
20487;DHT22;10402;49.012;8.370;2023-07-16T05:03:32;20.10;91.40
20487;DHT22;10402;49.012;8.370;2023-07-16T05:05:58;20.20;91.40
20487;DHT22;10402;49.012;8.370;2023-07-16T05:08:23;20.10;91.20
20487;DHT22;10402;49.012;8.370;2023-07-16T05:10:49;20.10;91.20
20487;DHT22;10402;49.012;8.370;2023-07-16T05:13:15;20.20;91.30
20487;DHT22;10402;49.012;8.370;2023-07-16T05:15:43;20.10;91.10
20487;DHT22;10402;49.012;8.370;2023-07-16T05:18:08;20.20;91.00
20487;DHT22;10402;49.012;8.370;2023-07-16T05:20:34;20.20;91.00
20487;DHT22;10402;49.012;8.370;2023-07-16T05:22:59;20.20;91.00
20487;DHT22;10402;49.012;8.370;2023-07-16T05:25:25;20.20;91.00
20487;DHT22;10402;49.012;8.370;2023-07-16T05:27:50;20.20;91.00
20487;DHT22;10402;49.012;8.370;2023-07-16T05:30:16;20.20;91.00
20487;DHT22;10402;49.012;8.370;2023-07-16T05:32:41;20.20;91.00
20487;DHT22;10402;49.012;8.370;2023-07-16T05:35:07;20.20;91.00
20487;DHT22;10402;49.012;8.370;2023-07-16T05:37:33;20.20;91.00
20487;DHT22;10402;49.012;8.370;2023-07-16T05:39:58;20.20;90.80
20487;DHT22;10402;49.012;8.370;2023-07-16T05:42:24;20.20;90.70
20487;DHT22;10402;49.012;8.370;2023-07-16T05:44:49;20.20;90.80
20487;DHT22;10402;49.012;8.370;2023-07-16T05:47:15;20.20;90.70
20487;DHT22;10402;49.012;8.370;2023-07-16T05:49:41;20.20;90.60
20487;DHT22;10402;49.012;8.370;2023-07-16T05:52:06;20.20;90.60
20487;DHT22;10402;49.012;8.370;2023-07-16T05:54:32;20.20;90.50
20487;DHT22;10402;49.012;8.370;2023-07-16T05:56:58;20.20;90.40
20487;DHT22;10402;49.012;8.370;2023-07-16T05:59:23;20.20;90.50
20487;DHT22;10402;49.012;8.370;2023-07-16T06:01:49;20.10;90.50
20487;DHT22;10402;49.012;8.370;2023-07-16T06:04:14;20.20;90.50
20487;DHT22;10402;49.012;8.370;2023-07-16T06:06:40;20.30;90.40
20487;DHT22;10402;49.012;8.370;2023-07-16T06:09:05;20.20;90.20
20487;DHT22;10402;49.012;8.370;2023-07-16T06:11:31;20.20;90.20
20487;DHT22;10402;49.012;8.370;2023-07-16T06:13:56;20.30;90.20
20487;DHT22;10402;49.012;8.370;2023-07-16T06:16:22;20.30;90.10
20487;DHT22;10402;49.012;8.370;2023-07-16T06:18:47;20.30;90.10
20487;DHT22;10402;49.012;8.370;2023-07-16T06:21:13;20.40;90.00
20487;DHT22;10402;49.012;8.370;2023-07-16T06:23:39;20.40;90.00
20487;DHT22;10402;49.012;8.370;2023-07-16T06:26:05;20.50;89.90
20487;DHT22;10402;49.012;8.370;2023-07-16T06:28:31;20.50;89.70
20487;DHT22;10402;49.012;8.370;2023-07-16T06:30:57;20.60;89.90
20487;DHT22;10402;49.012;8.370;2023-07-16T06:33:23;20.60;89.50
20487;DHT22;10402;49.012;8.370;2023-07-16T06:35:48;20.70;89.20
20487;DHT22;10402;49.012;8.370;2023-07-16T06:38:14;20.70;89.10
20487;DHT22;10402;49.012;8.370;2023-07-16T06:40:46;20.70;88.90
20487;DHT22;10402;49.012;8.370;2023-07-16T06:43:12;20.70;88.50
20487;DHT22;10402;49.012;8.370;2023-07-16T06:45:38;20.80;88.40
20487;DHT22;10402;49.012;8.370;2023-07-16T06:48:04;20.80;87.90
20487;DHT22;10402;49.012;8.370;2023-07-16T06:50:29;20.80;87.90
20487;DHT22;10402;49.012;8.370;2023-07-16T06:52:55;20.80;87.40
20487;DHT22;10402;49.012;8.370;2023-07-16T06:55:20;20.90;87.40
20487;DHT22;10402;49.012;8.370;2023-07-16T06:57:46;20.90;87.20
20487;DHT22;10402;49.012;8.370;2023-07-16T07:00:11;21.00;86.90
20487;DHT22;10402;49.012;8.370;2023-07-16T07:02:37;21.00;86.20
20487;DHT22;10402;49.012;8.370;2023-07-16T07:05:03;21.10;86.00
20487;DHT22;10402;49.012;8.370;2023-07-16T07:07:28;21.10;84.90
20487;DHT22;10402;49.012;8.370;2023-07-16T07:09:54;21.00;84.00
20487;DHT22;10402;49.012;8.370;2023-07-16T07:12:19;21.00;83.80
20487;DHT22;10402;49.012;8.370;2023-07-16T07:14:47;21.10;83.50
20487;DHT22;10402;49.012;8.370;2023-07-16T07:17:13;21.10;83.30
20487;DHT22;10402;49.012;8.370;2023-07-16T07:19:39;21.10;82.90
20487;DHT22;10402;49.012;8.370;2023-07-16T07:22:04;21.20;83.00
20487;DHT22;10402;49.012;8.370;2023-07-16T07:24:30;21.30;82.80
20487;DHT22;10402;49.012;8.370;2023-07-16T07:26:55;21.40;82.40
20487;DHT22;10402;49.012;8.370;2023-07-16T07:29:21;21.40;82.20
20487;DHT22;10402;49.012;8.370;2023-07-16T07:31:46;21.40;81.90
20487;DHT22;10402;49.012;8.370;2023-07-16T07:34:12;21.50;81.70
20487;DHT22;10402;49.012;8.370;2023-07-16T07:36:37;21.50;82.20
20487;DHT22;10402;49.012;8.370;2023-07-16T07:39:03;21.50;81.00
20487;DHT22;10402;49.012;8.370;2023-07-16T07:41:28;21.50;80.90
20487;DHT22;10402;49.012;8.370;2023-07-16T07:43:54;21.60;80.80
20487;DHT22;10402;49.012;8.370;2023-07-16T07:46:20;21.60;80.60
20487;DHT22;10402;49.012;8.370;2023-07-16T07:48:45;21.70;80.30
20487;DHT22;10402;49.012;8.370;2023-07-16T07:51:11;21.80;80.00
20487;DHT22;10402;49.012;8.370;2023-07-16T07:53:37;21.80;79.10
20487;DHT22;10402;49.012;8.370;2023-07-16T07:56:02;21.80;78.90
20487;DHT22;10402;49.012;8.370;2023-07-16T07:58:28;21.80;78.70
20487;DHT22;10402;49.012;8.370;2023-07-16T08:00:54;21.80;78.60
20487;DHT22;10402;49.012;8.370;2023-07-16T08:03:19;21.80;78.50
20487;DHT22;10402;49.012;8.370;2023-07-16T08:05:48;21.80;77.90
20487;DHT22;10402;49.012;8.370;2023-07-16T08:08:14;21.80;77.50
20487;DHT22;10402;49.012;8.370;2023-07-16T08:10:39;21.70;77.60
20487;DHT22;10402;49.012;8.370;2023-07-16T08:13:06;21.70;77.60
20487;DHT22;10402;49.012;8.370;2023-07-16T08:15:31;21.70;77.30
20487;DHT22;10402;49.012;8.370;2023-07-16T08:17:57;21.70;77.20
20487;DHT22;10402;49.012;8.370;2023-07-16T08:20:25;21.60;77.00
20487;DHT22;10402;49.012;8.370;2023-07-16T08:22:50;21.60;77.00
20487;DHT22;10402;49.012;8.370;2023-07-16T08:25:16;21.50;77.00
20487;DHT22;10402;49.012;8.370;2023-07-16T08:27:42;21.60;76.90
20487;DHT22;10402;49.012;8.370;2023-07-16T08:30:07;21.60;76.60
20487;DHT22;10402;49.012;8.370;2023-07-16T08:32:33;21.50;76.20
20487;DHT22;10402;49.012;8.370;2023-07-16T08:34:59;21.60;76.20
20487;DHT22;10402;49.012;8.370;2023-07-16T08:37:24;21.60;76.30
20487;DHT22;10402;49.012;8.370;2023-07-16T08:39:53;21.50;76.00
20487;DHT22;10402;49.012;8.370;2023-07-16T08:42:21;21.50;75.70
20487;DHT22;10402;49.012;8.370;2023-07-16T08:44:48;21.50;75.50
20487;DHT22;10402;49.012;8.370;2023-07-16T08:47:16;21.50;75.80
20487;DHT22;10402;49.012;8.370;2023-07-16T08:49:54;21.50;75.80
20487;DHT22;10402;49.012;8.370;2023-07-16T08:52:20;21.60;75.90
20487;DHT22;10402;49.012;8.370;2023-07-16T08:54:46;21.60;75.80
20487;DHT22;10402;49.012;8.370;2023-07-16T08:57:13;21.70;75.80
20487;DHT22;10402;49.012;8.370;2023-07-16T08:59:38;21.70;75.50
20487;DHT22;10402;49.012;8.370;2023-07-16T09:02:04;21.70;75.40
20487;DHT22;10402;49.012;8.370;2023-07-16T09:04:32;21.80;75.30
20487;DHT22;10402;49.012;8.370;2023-07-16T09:06:58;21.80;74.80
20487;DHT22;10402;49.012;8.370;2023-07-16T09:09:24;21.90;74.50
20487;DHT22;10402;49.012;8.370;2023-07-16T09:11:50;22.00;73.80
20487;DHT22;10402;49.012;8.370;2023-07-16T09:14:19;22.10;73.80
20487;DHT22;10402;49.012;8.370;2023-07-16T09:16:51;22.20;73.50
20487;DHT22;10402;49.012;8.370;2023-07-16T09:19:17;22.40;73.30
20487;DHT22;10402;49.012;8.370;2023-07-16T09:21:49;22.50;72.60
20487;DHT22;10402;49.012;8.370;2023-07-16T09:24:15;22.60;72.40
20487;DHT22;10402;49.012;8.370;2023-07-16T09:26:51;22.70;71.60
20487;DHT22;10402;49.012;8.370;2023-07-16T09:29:18;22.80;71.20
20487;DHT22;10402;49.012;8.370;2023-07-16T09:31:54;22.80;70.70
20487;DHT22;10402;49.012;8.370;2023-07-16T09:34:20;22.90;70.00
20487;DHT22;10402;49.012;8.370;2023-07-16T09:36:49;22.80;68.70
20487;DHT22;10402;49.012;8.370;2023-07-16T09:39:19;22.80;69.10
20487;DHT22;10402;49.012;8.370;2023-07-16T09:41:47;22.70;68.60
20487;DHT22;10402;49.012;8.370;2023-07-16T09:44:13;22.70;68.20
20487;DHT22;10402;49.012;8.370;2023-07-16T09:46:39;22.70;68.10
20487;DHT22;10402;49.012;8.370;2023-07-16T09:49:06;22.80;68.00
20487;DHT22;10402;49.012;8.370;2023-07-16T09:51:32;22.80;67.60
20487;DHT22;10402;49.012;8.370;2023-07-16T09:54:03;22.90;67.20
20487;DHT22;10402;49.012;8.370;2023-07-16T09:56:39;23.00;66.80
20487;DHT22;10402;49.012;8.370;2023-07-16T09:59:10;23.00;66.00
20487;DHT22;10402;49.012;8.370;2023-07-16T10:01:37;23.00;66.20
20487;DHT22;10402;49.012;8.370;2023-07-16T10:04:16;23.10;66.30
20487;DHT22;10402;49.012;8.370;2023-07-16T10:07:00;23.20;66.00
20487;DHT22;10402;49.012;8.370;2023-07-16T10:09:41;23.20;66.00
20487;DHT22;10402;49.012;8.370;2023-07-16T10:12:18;23.30;64.80
20487;DHT22;10402;49.012;8.370;2023-07-16T10:14:49;23.30;64.60
20487;DHT22;10402;49.012;8.370;2023-07-16T10:17:25;23.40;63.50
20487;DHT22;10402;49.012;8.370;2023-07-16T10:19:58;23.40;63.30
20487;DHT22;10402;49.012;8.370;2023-07-16T10:24:58;23.50;63.40
20487;DHT22;10402;49.012;8.370;2023-07-16T10:27:31;23.60;63.00
20487;DHT22;10402;49.012;8.370;2023-07-16T10:29:57;23.60;62.80
20487;DHT22;10402;49.012;8.370;2023-07-16T10:32:26;23.60;62.60
20487;DHT22;10402;49.012;8.370;2023-07-16T10:34:53;23.70;62.80
20487;DHT22;10402;49.012;8.370;2023-07-16T10:37:19;23.70;62.00
20487;DHT22;10402;49.012;8.370;2023-07-16T10:39:49;23.70;61.90
20487;DHT22;10402;49.012;8.370;2023-07-16T10:42:19;23.70;61.90
20487;DHT22;10402;49.012;8.370;2023-07-16T10:44:44;23.60;61.30
20487;DHT22;10402;49.012;8.370;2023-07-16T10:49:51;23.60;61.50
20487;DHT22;10402;49.012;8.370;2023-07-16T10:52:23;23.60;60.90
20487;DHT22;10402;49.012;8.370;2023-07-16T10:54:49;23.60;61.00
20487;DHT22;10402;49.012;8.370;2023-07-16T10:57:16;23.60;60.50
20487;DHT22;10402;49.012;8.370;2023-07-16T10:59:42;23.50;60.60
20487;DHT22;10402;49.012;8.370;2023-07-16T11:02:13;23.50;60.90
20487;DHT22;10402;49.012;8.370;2023-07-16T11:04:40;23.50;61.30
20487;DHT22;10402;49.012;8.370;2023-07-16T11:07:08;23.50;61.20
20487;DHT22;10402;49.012;8.370;2023-07-16T11:09:35;23.50;61.40
20487;DHT22;10402;49.012;8.370;2023-07-16T11:12:11;23.60;60.90
20487;DHT22;10402;49.012;8.370;2023-07-16T11:14:38;23.60;60.50
20487;DHT22;10402;49.012;8.370;2023-07-16T11:17:08;23.60;59.70
20487;DHT22;10402;49.012;8.370;2023-07-16T11:19:35;23.60;60.20
20487;DHT22;10402;49.012;8.370;2023-07-16T11:22:02;23.60;59.90
20487;DHT22;10402;49.012;8.370;2023-07-16T11:24:29;23.60;60.20
20487;DHT22;10402;49.012;8.370;2023-07-16T11:27:01;23.70;60.00
20487;DHT22;10402;49.012;8.370;2023-07-16T11:29:34;23.70;60.00
20487;DHT22;10402;49.012;8.370;2023-07-16T11:32:00;23.80;59.90
20487;DHT22;10402;49.012;8.370;2023-07-16T11:34:26;23.90;59.40
20487;DHT22;10402;49.012;8.370;2023-07-16T11:36:51;23.90;60.00
20487;DHT22;10402;49.012;8.370;2023-07-16T11:39:17;23.90;59.00
20487;DHT22;10402;49.012;8.370;2023-07-16T11:41:42;24.00;59.00
20487;DHT22;10402;49.012;8.370;2023-07-16T11:44:19;24.00;58.80
20487;DHT22;10402;49.012;8.370;2023-07-16T11:46:47;24.00;58.40
20487;DHT22;10402;49.012;8.370;2023-07-16T11:49:13;24.00;58.60
20487;DHT22;10402;49.012;8.370;2023-07-16T11:51:39;24.00;57.90
20487;DHT22;10402;49.012;8.370;2023-07-16T11:54:04;24.10;58.20
20487;DHT22;10402;49.012;8.370;2023-07-16T11:56:30;24.10;58.00
20487;DHT22;10402;49.012;8.370;2023-07-16T11:58:55;24.20;58.10
20487;DHT22;10402;49.012;8.370;2023-07-16T12:01:21;24.20;57.40
20487;DHT22;10402;49.012;8.370;2023-07-16T12:03:46;24.20;57.50
20487;DHT22;10402;49.012;8.370;2023-07-16T12:06:12;24.20;57.30
20487;DHT22;10402;49.012;8.370;2023-07-16T12:08:38;24.20;57.30
20487;DHT22;10402;49.012;8.370;2023-07-16T12:11:03;24.30;57.30
20487;DHT22;10402;49.012;8.370;2023-07-16T12:13:29;24.30;57.00
20487;DHT22;10402;49.012;8.370;2023-07-16T12:15:54;24.30;56.80
20487;DHT22;10402;49.012;8.370;2023-07-16T12:18:20;24.30;56.80
20487;DHT22;10402;49.012;8.370;2023-07-16T12:20:45;24.30;56.80
20487;DHT22;10402;49.012;8.370;2023-07-16T12:23:11;24.40;56.80
20487;DHT22;10402;49.012;8.370;2023-07-16T12:25:36;24.30;56.60
20487;DHT22;10402;49.012;8.370;2023-07-16T12:28:02;24.40;56.40
20487;DHT22;10402;49.012;8.370;2023-07-16T12:30:28;24.30;56.30
20487;DHT22;10402;49.012;8.370;2023-07-16T12:32:53;24.30;56.20
20487;DHT22;10402;49.012;8.370;2023-07-16T12:35:19;24.30;56.20
20487;DHT22;10402;49.012;8.370;2023-07-16T12:37:44;24.30;56.20
20487;DHT22;10402;49.012;8.370;2023-07-16T12:40:10;24.30;56.20
20487;DHT22;10402;49.012;8.370;2023-07-16T12:42:35;24.30;55.70
20487;DHT22;10402;49.012;8.370;2023-07-16T12:45:02;24.30;55.70
20487;DHT22;10402;49.012;8.370;2023-07-16T12:47:27;24.30;56.00
20487;DHT22;10402;49.012;8.370;2023-07-16T12:49:53;24.40;56.70
20487;DHT22;10402;49.012;8.370;2023-07-16T12:52:18;24.40;56.00
20487;DHT22;10402;49.012;8.370;2023-07-16T12:54:44;24.40;55.90
20487;DHT22;10402;49.012;8.370;2023-07-16T12:57:09;24.40;56.00
20487;DHT22;10402;49.012;8.370;2023-07-16T12:59:35;24.40;56.00
20487;DHT22;10402;49.012;8.370;2023-07-16T13:02:00;24.40;55.70
20487;DHT22;10402;49.012;8.370;2023-07-16T13:04:26;24.40;55.90
20487;DHT22;10402;49.012;8.370;2023-07-16T13:06:52;24.40;55.90
20487;DHT22;10402;49.012;8.370;2023-07-16T13:09:18;24.50;55.70
20487;DHT22;10402;49.012;8.370;2023-07-16T13:11:43;24.50;55.70
20487;DHT22;10402;49.012;8.370;2023-07-16T13:14:09;24.50;55.80
20487;DHT22;10402;49.012;8.370;2023-07-16T13:16:34;24.60;55.70
20487;DHT22;10402;49.012;8.370;2023-07-16T13:19:00;24.70;55.50
20487;DHT22;10402;49.012;8.370;2023-07-16T13:21:25;24.70;55.40
20487;DHT22;10402;49.012;8.370;2023-07-16T13:23:51;24.70;55.50
20487;DHT22;10402;49.012;8.370;2023-07-16T13:26:17;24.70;55.40
20487;DHT22;10402;49.012;8.370;2023-07-16T13:28:42;24.80;55.40
20487;DHT22;10402;49.012;8.370;2023-07-16T13:31:08;24.80;55.30
20487;DHT22;10402;49.012;8.370;2023-07-16T13:33:33;24.80;55.30
20487;DHT22;10402;49.012;8.370;2023-07-16T13:36:00;24.80;54.90
20487;DHT22;10402;49.012;8.370;2023-07-16T13:38:28;24.90;54.80
20487;DHT22;10402;49.012;8.370;2023-07-16T13:40:54;24.80;55.00
20487;DHT22;10402;49.012;8.370;2023-07-16T13:43:19;24.90;54.90
20487;DHT22;10402;49.012;8.370;2023-07-16T13:45:45;24.90;54.80
20487;DHT22;10402;49.012;8.370;2023-07-16T13:48:10;24.90;54.80
20487;DHT22;10402;49.012;8.370;2023-07-16T13:50:36;24.90;54.70
20487;DHT22;10402;49.012;8.370;2023-07-16T13:53:01;24.90;54.40
20487;DHT22;10402;49.012;8.370;2023-07-16T13:55:28;25.00;54.90
20487;DHT22;10402;49.012;8.370;2023-07-16T13:57:54;25.00;54.80
20487;DHT22;10402;49.012;8.370;2023-07-16T14:00:21;25.10;54.90
20487;DHT22;10402;49.012;8.370;2023-07-16T14:02:47;25.00;54.10
20487;DHT22;10402;49.012;8.370;2023-07-16T14:05:12;25.00;54.50
20487;DHT22;10402;49.012;8.370;2023-07-16T14:07:38;25.00;54.90
20487;DHT22;10402;49.012;8.370;2023-07-16T14:10:04;25.10;54.40
20487;DHT22;10402;49.012;8.370;2023-07-16T14:12:29;25.20;54.10
20487;DHT22;10402;49.012;8.370;2023-07-16T14:14:55;25.20;53.80
20487;DHT22;10402;49.012;8.370;2023-07-16T14:17:21;25.10;53.50
20487;DHT22;10402;49.012;8.370;2023-07-16T14:19:46;25.10;53.80
20487;DHT22;10402;49.012;8.370;2023-07-16T14:22:12;25.20;53.70
20487;DHT22;10402;49.012;8.370;2023-07-16T14:24:38;25.20;53.70
20487;DHT22;10402;49.012;8.370;2023-07-16T14:27:06;25.20;53.80
20487;DHT22;10402;49.012;8.370;2023-07-16T14:29:32;25.30;53.90
20487;DHT22;10402;49.012;8.370;2023-07-16T14:31:58;25.30;54.30
20487;DHT22;10402;49.012;8.370;2023-07-16T14:34:25;25.40;53.80
20487;DHT22;10402;49.012;8.370;2023-07-16T14:36:50;25.40;53.90
20487;DHT22;10402;49.012;8.370;2023-07-16T14:39:16;25.40;53.70
20487;DHT22;10402;49.012;8.370;2023-07-16T14:41:41;25.50;53.60
20487;DHT22;10402;49.012;8.370;2023-07-16T14:44:07;25.50;53.30
20487;DHT22;10402;49.012;8.370;2023-07-16T14:46:32;25.50;53.20
20487;DHT22;10402;49.012;8.370;2023-07-16T14:48:58;25.50;53.40
20487;DHT22;10402;49.012;8.370;2023-07-16T14:51:24;25.60;53.30
20487;DHT22;10402;49.012;8.370;2023-07-16T14:53:50;25.60;53.20
20487;DHT22;10402;49.012;8.370;2023-07-16T14:56:18;25.70;53.10
20487;DHT22;10402;49.012;8.370;2023-07-16T14:58:44;25.70;52.90
20487;DHT22;10402;49.012;8.370;2023-07-16T15:01:10;25.70;52.90
20487;DHT22;10402;49.012;8.370;2023-07-16T15:03:36;25.70;52.90
20487;DHT22;10402;49.012;8.370;2023-07-16T15:06:03;25.60;52.80
20487;DHT22;10402;49.012;8.370;2023-07-16T15:08:28;25.60;52.50
20487;DHT22;10402;49.012;8.370;2023-07-16T15:11:00;25.50;52.30
20487;DHT22;10402;49.012;8.370;2023-07-16T15:13:25;25.50;52.70
20487;DHT22;10402;49.012;8.370;2023-07-16T15:15:57;25.50;52.70
20487;DHT22;10402;49.012;8.370;2023-07-16T15:18:23;25.60;52.60
20487;DHT22;10402;49.012;8.370;2023-07-16T15:20:55;25.60;52.60
20487;DHT22;10402;49.012;8.370;2023-07-16T15:23:21;25.60;52.30
20487;DHT22;10402;49.012;8.370;2023-07-16T15:25:47;25.60;52.20
20487;DHT22;10402;49.012;8.370;2023-07-16T15:28:12;25.60;52.10
20487;DHT22;10402;49.012;8.370;2023-07-16T15:30:38;25.60;52.10
20487;DHT22;10402;49.012;8.370;2023-07-16T15:33:03;25.60;52.20
20487;DHT22;10402;49.012;8.370;2023-07-16T15:35:29;25.60;52.10